createdAt,value
2023-04-13T00:00:49.720Z,69.40
2023-04-13T00:03:18.176Z,69.40
2023-04-13T00:05:46.564Z,69.30
2023-04-13T00:08:22.914Z,69.20
2023-04-13T00:10:51.073Z,69.20
2023-04-13T00:13:21.029Z,69.20
2023-04-13T00:15:48.330Z,69.40
2023-04-13T00:18:15.660Z,69.40
2023-04-13T00:20:43.725Z,69.40
2023-04-13T00:23:11.206Z,69.60
2023-04-13T00:25:38.702Z,69.70
2023-04-13T00:28:09.136Z,69.80
2023-04-13T00:30:36.785Z,69.90
2023-04-13T00:33:06.847Z,70.10
2023-04-13T00:35:36.451Z,70.80
2023-04-13T00:38:06.155Z,70.10
2023-04-13T00:40:37.982Z,70.20
2023-04-13T00:43:05.760Z,70.40
2023-04-13T00:45:39.024Z,70.40
2023-04-13T00:48:12.426Z,70.50
2023-04-13T00:50:42.127Z,70.50
2023-04-13T00:53:13.471Z,70.50
2023-04-13T00:55:42.994Z,70.40
2023-04-13T00:58:13.394Z,70.50
2023-04-13T01:00:42.968Z,70.50
2023-04-13T01:03:11.578Z,70.50
2023-04-13T01:06:17.949Z,70.50
2023-04-13T01:08:53.285Z,70.50
2023-04-13T01:11:28.392Z,70.50
2023-04-13T01:14:07.115Z,70.50
2023-04-13T01:16:49.202Z,70.60
2023-04-13T01:19:35.024Z,70.70
2023-04-13T01:22:06.065Z,70.50
2023-04-13T01:24:48.293Z,70.50
2023-04-13T01:27:20.543Z,70.90
2023-04-13T01:29:49.757Z,70.70
2023-04-13T01:32:20.352Z,70.70
2023-04-13T01:34:50.178Z,70.80
2023-04-13T01:37:25.880Z,70.90
2023-04-13T01:39:53.480Z,70.80
2023-04-13T01:42:23.489Z,70.80
2023-04-13T01:44:53.189Z,70.90
2023-04-13T01:47:25.600Z,70.80
2023-04-13T01:49:59.929Z,71.10
2023-04-13T01:52:31.197Z,71.20
2023-04-13T01:55:02.927Z,71.20
2023-04-13T01:57:31.225Z,71.30
2023-04-13T02:00:11.807Z,71.30
2023-04-13T02:02:39.221Z,71.30
2023-04-13T02:05:10.329Z,71.20
2023-04-13T02:07:41.739Z,71.00
2023-04-13T02:10:09.604Z,70.80
2023-04-13T02:12:37.621Z,70.80
2023-04-13T02:15:05.255Z,70.70
2023-04-13T02:17:34.906Z,70.60
2023-04-13T02:20:02.695Z,70.70
2023-04-13T02:22:32.615Z,70.70
2023-04-13T02:25:00.580Z,70.90
2023-04-13T02:27:29.009Z,71.00
2023-04-13T02:30:01.376Z,71.10
2023-04-13T02:32:31.659Z,71.00
2023-04-13T02:35:02.281Z,71.00
2023-04-13T02:37:33.025Z,70.80
2023-04-13T02:40:00.263Z,70.60
2023-04-13T02:42:28.014Z,70.50
2023-04-13T02:44:55.269Z,70.40
2023-04-13T02:47:22.721Z,70.60
2023-04-13T02:49:50.083Z,70.60
2023-04-13T02:52:21.628Z,70.50
2023-04-13T02:54:54.596Z,70.40
2023-04-13T02:57:22.507Z,70.30
2023-04-13T02:59:50.617Z,70.10
2023-04-13T03:02:20.463Z,70.10
2023-04-13T03:04:52.502Z,70.20
2023-04-13T03:07:19.766Z,70.20
2023-04-13T03:09:49.314Z,69.90
2023-04-13T03:12:17.106Z,70.10
2023-04-13T03:14:44.347Z,70.00
2023-04-13T03:17:12.600Z,70.00
2023-04-13T03:19:42.705Z,70.00
2023-04-13T03:22:10.047Z,70.00
2023-04-13T03:24:39.766Z,70.00
2023-04-13T03:27:09.591Z,69.90
2023-04-13T03:29:37.687Z,70.00
2023-04-13T03:32:06.955Z,70.00
2023-04-13T03:34:34.264Z,70.10
2023-04-13T03:37:01.508Z,70.20
2023-04-13T03:39:33.815Z,70.20
2023-04-13T03:42:03.683Z,70.40
2023-04-13T03:44:33.616Z,70.30
2023-04-13T03:47:01.540Z,70.20
2023-04-13T03:49:30.478Z,70.20
2023-04-13T03:52:00.415Z,70.30
2023-04-13T03:54:27.670Z,70.20
2023-04-13T03:56:58.752Z,70.20
2023-04-13T03:59:26.148Z,70.20
2023-04-13T04:01:56.752Z,70.20
2023-04-13T04:04:27.312Z,70.10
2023-04-13T04:06:54.656Z,70.20
2023-04-13T04:09:27.479Z,70.20
2023-04-13T04:11:57.623Z,70.30
2023-04-13T04:14:27.321Z,70.30
2023-04-13T04:16:57.125Z,70.40
2023-04-13T04:19:26.628Z,70.40
2023-04-13T04:21:57.767Z,70.50
2023-04-13T04:24:29.795Z,70.20
2023-04-13T04:27:00.692Z,70.10
2023-04-13T04:29:34.346Z,69.50
2023-04-13T04:32:05.698Z,69.20
2023-04-13T04:34:33.370Z,68.70
2023-04-13T04:37:19.687Z,68.90
2023-04-13T04:39:48.622Z,68.70
2023-04-13T04:42:18.930Z,68.60
2023-04-13T04:44:50.400Z,68.70
2023-04-13T04:47:19.730Z,68.70
2023-04-13T04:49:47.286Z,68.50
2023-04-13T04:52:14.763Z,68.60
2023-04-13T04:54:42.039Z,68.70
2023-04-13T04:57:12.377Z,68.80
2023-04-13T04:59:40.934Z,68.60
2023-04-13T05:02:10.758Z,68.50
2023-04-13T05:04:43.629Z,68.50
2023-04-13T05:07:17.664Z,68.40
2023-04-13T05:09:45.594Z,68.50
2023-04-13T05:12:12.892Z,68.60
2023-04-13T05:14:42.625Z,68.50
2023-04-13T05:17:12.261Z,68.50
2023-04-13T05:19:39.569Z,68.30
2023-04-13T05:22:06.912Z,68.30
2023-04-13T05:24:36.137Z,68.20
2023-04-13T05:27:06.202Z,68.20
2023-04-13T05:29:35.443Z,68.20
2023-04-13T05:32:03.238Z,68.10
2023-04-13T05:34:33.696Z,68.00
2023-04-13T05:37:00.976Z,68.00
2023-04-13T05:39:28.344Z,68.00
2023-04-13T05:41:56.217Z,67.90
2023-04-13T05:44:26.264Z,67.80
2023-04-13T05:46:54.205Z,67.80
2023-04-13T05:49:21.577Z,67.70
2023-04-13T05:51:49.004Z,67.60
2023-04-13T05:54:17.509Z,67.50
2023-04-13T05:56:44.794Z,67.70
2023-04-13T05:59:12.466Z,67.80
2023-04-13T06:01:39.845Z,67.80
2023-04-13T06:04:09.553Z,67.80
2023-04-13T06:06:37.979Z,67.90
2023-04-13T06:09:08.835Z,67.80
2023-04-13T06:11:36.787Z,67.90
2023-04-13T06:14:06.179Z,67.90
2023-04-13T06:16:33.617Z,68.10
2023-04-13T06:19:01.359Z,68.10
2023-04-13T06:21:32.015Z,68.10
2023-04-13T06:23:59.385Z,68.20
2023-04-13T06:26:28.944Z,68.40
2023-04-13T06:28:56.809Z,68.60
2023-04-13T06:31:27.987Z,68.70
2023-04-13T06:33:55.622Z,68.70
2023-04-13T06:36:23.004Z,68.80
2023-04-13T06:38:50.661Z,68.90
2023-04-13T06:41:18.042Z,69.00
2023-04-13T06:43:45.551Z,68.80
2023-04-13T06:46:14.479Z,69.50
2023-04-13T06:48:41.977Z,69.10
2023-04-13T06:51:09.371Z,69.20
2023-04-13T06:53:36.681Z,69.30
2023-04-13T06:56:07.189Z,69.50
2023-04-13T06:58:34.655Z,69.80
2023-04-13T07:01:02.107Z,69.80
2023-04-13T07:03:32.048Z,69.50
2023-04-13T07:05:59.657Z,69.90
2023-04-13T07:08:28.249Z,69.90
2023-04-13T07:10:58.297Z,69.90
2023-04-13T07:13:28.163Z,69.80
2023-04-13T07:15:55.501Z,69.60
2023-04-13T07:18:27.271Z,69.90
2023-04-13T07:20:56.725Z,70.00
2023-04-13T07:23:26.623Z,69.80
2023-04-13T07:25:56.519Z,70.10
2023-04-13T07:28:24.207Z,70.50
2023-04-13T07:30:53.439Z,70.50
2023-04-13T07:33:20.957Z,70.60
2023-04-13T07:35:55.611Z,70.80
2023-04-13T07:38:25.331Z,71.00
2023-04-13T07:40:52.723Z,70.90
2023-04-13T07:43:25.218Z,70.70
2023-04-13T07:45:52.561Z,70.80
2023-04-13T07:48:19.865Z,70.80
2023-04-13T07:50:49.491Z,70.60
2023-04-13T07:53:16.962Z,70.50
2023-04-13T07:55:44.254Z,70.50
2023-04-13T07:58:16.038Z,70.40
2023-04-13T08:00:43.217Z,70.50
2023-04-13T08:03:13.307Z,70.30
2023-04-13T08:05:40.843Z,69.90
2023-04-13T08:08:11.175Z,69.90
2023-04-13T08:10:38.448Z,70.20
2023-04-13T08:13:05.951Z,70.00
2023-04-13T08:15:33.286Z,69.80
2023-04-13T08:18:00.998Z,69.40
2023-04-13T08:20:35.536Z,69.30
2023-04-13T08:23:03.681Z,69.10
2023-04-13T08:25:31.090Z,68.90
2023-04-13T08:28:03.077Z,69.00
2023-04-13T08:30:33.187Z,68.70
2023-04-13T08:33:01.180Z,68.50
2023-04-13T08:35:28.525Z,68.40
2023-04-13T08:38:01.889Z,68.60
2023-04-13T08:40:30.614Z,68.10
2023-04-13T08:43:00.330Z,68.10
2023-04-13T08:45:30.793Z,68.20
2023-04-13T08:48:04.358Z,68.30
2023-04-13T08:50:34.127Z,68.10
2023-04-13T08:53:01.676Z,68.30
2023-04-13T08:55:29.775Z,68.40
2023-04-13T08:58:01.221Z,68.30
2023-04-13T09:00:31.344Z,68.40
2023-04-13T09:03:05.762Z,68.30
2023-04-13T09:05:41.928Z,68.30
2023-04-13T09:08:14.168Z,68.30
2023-04-13T09:10:42.294Z,68.00
2023-04-13T09:13:09.899Z,68.00
2023-04-13T09:15:37.495Z,68.20
2023-04-13T09:18:09.628Z,68.10
2023-04-13T09:20:40.657Z,68.40
2023-04-13T09:23:16.552Z,68.20
2023-04-13T09:25:45.366Z,68.30
2023-04-13T09:28:22.378Z,68.00
2023-04-13T09:31:02.412Z,67.70
2023-04-13T09:33:34.682Z,67.80
2023-04-13T09:36:22.703Z,67.80
2023-04-13T09:38:57.484Z,67.70
2023-04-13T09:41:31.986Z,67.90
2023-04-13T09:44:17.898Z,67.70
2023-04-13T09:47:00.343Z,67.40
2023-04-13T09:49:41.108Z,67.40
2023-04-13T09:52:28.755Z,67.10
2023-04-13T09:55:00.354Z,66.90
2023-04-13T09:57:28.516Z,66.80
2023-04-13T09:59:57.817Z,67.10
2023-04-13T10:02:29.053Z,66.50
2023-04-13T10:05:03.968Z,66.20
2023-04-13T10:07:37.086Z,66.40
2023-04-13T10:10:04.935Z,66.60
2023-04-13T10:12:35.183Z,66.80
2023-04-13T10:15:31.006Z,67.00
2023-04-13T10:18:09.822Z,67.30
2023-04-13T10:20:37.563Z,67.50
2023-04-13T10:23:05.972Z,67.40
2023-04-13T10:25:35.694Z,67.50
2023-04-13T10:28:07.076Z,67.30
2023-04-13T10:30:34.384Z,67.30
2023-04-13T10:33:12.221Z,67.10
2023-04-13T10:35:43.429Z,67.30
2023-04-13T10:38:11.582Z,67.20
2023-04-13T10:40:46.253Z,67.20
2023-04-13T10:43:24.721Z,66.40
2023-04-13T10:46:05.361Z,66.60
2023-04-13T10:48:32.675Z,66.70
2023-04-13T10:51:00.704Z,66.90
2023-04-13T10:53:31.062Z,66.80
2023-04-13T10:56:01.523Z,66.80
2023-04-13T10:58:33.160Z,66.40
2023-04-13T11:01:00.943Z,66.30
2023-04-13T11:03:31.145Z,66.40
2023-04-13T11:06:00.905Z,65.80
2023-04-13T11:08:28.392Z,65.50
2023-04-13T11:10:57.079Z,65.00
2023-04-13T11:13:29.707Z,64.90
2023-04-13T11:16:06.670Z,65.30
2023-04-13T11:18:34.066Z,64.90
2023-04-13T11:21:06.831Z,64.70
2023-04-13T11:23:40.867Z,64.90
2023-04-13T11:26:08.316Z,64.90
2023-04-13T11:28:39.099Z,64.90
2023-04-13T11:31:07.593Z,65.00
2023-04-13T11:33:40.465Z,65.40
2023-04-13T11:36:09.873Z,65.50
2023-04-13T11:38:40.178Z,65.60
2023-04-13T11:41:16.539Z,65.90
2023-04-13T11:43:48.848Z,65.90
2023-04-13T11:46:25.046Z,65.90
2023-04-13T11:48:55.748Z,66.20
2023-04-13T11:51:23.872Z,65.80
2023-04-13T11:53:55.072Z,65.90
2023-04-13T11:56:25.932Z,65.70
2023-04-13T11:58:53.873Z,65.30
2023-04-13T12:01:27.144Z,65.50
2023-04-13T12:04:19.107Z,65.60
2023-04-13T12:06:50.027Z,65.80
2023-04-13T12:09:22.191Z,65.60
2023-04-13T12:12:12.081Z,65.90
2023-04-13T12:19:45.988Z,66.30
2023-04-13T12:22:14.922Z,66.60
2023-04-13T12:24:42.984Z,66.60
2023-04-13T12:27:18.263Z,66.50
2023-04-13T12:29:46.202Z,66.50
2023-04-13T12:32:16.958Z,66.70
2023-04-13T12:34:45.111Z,66.70
2023-04-13T12:37:14.963Z,66.80
2023-04-13T12:39:42.439Z,67.00
2023-04-13T12:42:12.320Z,67.10
2023-04-13T12:44:39.560Z,67.10
2023-04-13T12:47:07.081Z,66.80
2023-04-13T12:49:36.643Z,66.50
2023-04-13T12:52:04.285Z,66.30
2023-04-13T12:54:31.554Z,66.10
2023-04-13T12:57:01.629Z,66.30
2023-04-13T12:59:28.963Z,66.50
2023-04-13T13:01:58.583Z,66.70
2023-04-13T13:04:30.752Z,66.90
2023-04-13T13:06:58.421Z,67.30
2023-04-13T13:09:30.237Z,67.40
2023-04-13T13:11:58.008Z,67.80
2023-04-13T13:14:25.618Z,67.40
2023-04-13T13:16:53.185Z,67.10
2023-04-13T13:19:20.670Z,66.60
2023-04-13T13:21:52.302Z,66.90
2023-04-13T13:24:20.151Z,66.90
2023-04-13T13:27:12.146Z,67.00
2023-04-13T13:29:37.264Z,67.40
2023-04-13T13:32:04.934Z,67.10
2023-04-13T13:34:32.517Z,67.10
2023-04-13T13:36:59.794Z,67.50
2023-04-13T13:39:27.227Z,67.20
2023-04-13T13:41:54.591Z,67.20
2023-04-13T13:44:25.107Z,67.10
2023-04-13T13:46:54.930Z,67.00
2023-04-13T13:49:22.360Z,67.20
2023-04-13T13:51:51.851Z,66.90
2023-04-13T13:54:22.707Z,67.20
2023-04-13T13:56:50.109Z,67.40
2023-04-13T13:59:19.566Z,67.00
2023-04-13T14:01:49.537Z,66.60
2023-04-13T14:04:19.408Z,66.70
2023-04-13T14:06:49.483Z,66.90
2023-04-13T14:09:18.437Z,67.10
2023-04-13T14:11:48.057Z,67.30
2023-04-13T14:14:21.587Z,67.00
2023-04-13T14:16:49.436Z,66.80
2023-04-13T14:19:18.207Z,67.10
2023-04-13T14:21:49.088Z,67.30
2023-04-13T14:24:16.588Z,67.20
2023-04-13T14:26:43.829Z,67.50
2023-04-13T14:29:11.126Z,67.60
2023-04-13T14:31:40.680Z,67.90
2023-04-13T14:34:10.478Z,68.20
2023-04-13T14:36:40.215Z,68.40
2023-04-13T14:39:10.160Z,68.30
2023-04-13T14:41:37.745Z,68.70
2023-04-13T14:44:05.031Z,68.70
2023-04-13T14:46:32.368Z,68.80
2023-04-13T14:48:59.943Z,68.60
2023-04-13T14:51:29.108Z,68.80
2023-04-13T14:54:01.057Z,69.00
2023-04-13T14:56:31.056Z,69.10
2023-04-13T14:58:58.792Z,69.40
2023-04-13T15:01:28.783Z,69.10
2023-04-13T15:03:56.403Z,69.30
2023-04-13T15:06:25.430Z,69.30
2023-04-13T15:08:55.573Z,69.20
2023-04-13T15:11:25.069Z,69.00
2023-04-13T15:13:52.334Z,69.30
2023-04-13T15:16:19.660Z,69.00
2023-04-13T15:18:47.046Z,68.90
2023-04-13T15:21:16.856Z,68.60
2023-04-13T15:23:44.204Z,68.40
2023-04-13T15:26:21.697Z,68.10
2023-04-13T15:28:49.023Z,68.90
2023-04-13T15:31:16.412Z,68.10
2023-04-13T15:33:48.376Z,68.40
2023-04-13T15:36:20.403Z,68.00
2023-04-13T15:38:49.883Z,67.70
2023-04-13T15:41:25.641Z,67.20
2023-04-13T15:43:59.134Z,66.70
2023-04-13T15:46:27.580Z,66.90
2023-04-13T15:48:57.712Z,67.10
2023-04-13T15:51:25.238Z,67.00
2023-04-13T15:53:54.745Z,67.00
2023-04-13T15:56:28.576Z,66.80
2023-04-13T15:59:00.698Z,66.60
2023-04-13T16:01:28.161Z,66.40
2023-04-13T16:03:58.239Z,66.40
2023-04-13T16:06:26.034Z,66.60
2023-04-13T16:08:58.426Z,66.60
2023-04-13T16:11:28.426Z,66.50
2023-04-13T16:13:58.113Z,66.40
2023-04-13T16:16:27.744Z,66.50
2023-04-13T16:18:55.068Z,66.60
2023-04-13T16:21:26.347Z,66.50
2023-04-13T16:23:55.925Z,66.60
2023-04-13T16:26:23.916Z,66.80
2023-04-13T16:28:51.329Z,67.10
2023-04-13T16:31:18.678Z,67.00
2023-04-13T16:33:48.483Z,67.10
2023-04-13T16:36:15.854Z,67.20
2023-04-13T16:38:43.135Z,67.30
2023-04-13T16:41:10.775Z,67.30
2023-04-13T16:43:40.489Z,67.40
2023-04-13T16:46:12.183Z,67.40
2023-04-13T16:48:39.645Z,67.60
2023-04-13T16:51:09.289Z,67.70
2023-04-13T16:53:36.573Z,67.60
2023-04-13T16:56:03.987Z,67.60
2023-04-13T16:58:31.520Z,67.80
2023-04-13T17:01:01.319Z,67.90
2023-04-13T17:03:31.223Z,68.00
2023-04-13T17:05:58.577Z,68.10
2023-04-13T17:08:28.581Z,68.20
2023-04-13T17:10:55.900Z,68.40
2023-04-13T17:13:23.228Z,68.30
2023-04-13T17:15:50.799Z,68.40
2023-04-13T17:18:18.192Z,68.40
2023-04-13T17:20:57.865Z,68.30
2023-04-13T17:23:25.167Z,68.30
2023-04-13T17:25:56.518Z,68.20
2023-04-13T17:28:24.365Z,68.30
2023-04-13T17:30:51.808Z,68.40
2023-04-13T17:33:19.191Z,68.60
2023-04-13T17:35:46.578Z,68.70
2023-04-13T17:38:14.001Z,68.40
2023-04-13T17:40:41.278Z,68.50
2023-04-13T17:43:09.243Z,68.60
2023-04-13T17:45:37.940Z,68.60
2023-04-13T17:48:11.067Z,68.70
2023-04-13T17:50:43.786Z,68.60
2023-04-13T17:53:14.109Z,68.90
2023-04-13T17:55:41.393Z,68.60
2023-04-13T17:58:10.678Z,68.70
2023-04-13T18:00:41.386Z,68.80
2023-04-13T18:03:11.646Z,68.80
2023-04-13T18:05:44.469Z,68.90
2023-04-13T18:08:14.341Z,69.00
2023-04-13T18:10:44.027Z,69.00
2023-04-13T18:13:13.662Z,69.00
2023-04-13T18:15:48.627Z,68.90
2023-04-13T18:18:18.785Z,69.00
2023-04-13T18:20:46.762Z,68.70
2023-04-13T18:23:14.047Z,68.50
2023-04-13T18:25:41.279Z,69.00
2023-04-13T18:28:08.524Z,68.30
2023-04-13T18:30:37.896Z,68.30
2023-04-13T18:33:05.333Z,68.30
2023-04-13T18:35:35.339Z,68.60
2023-04-13T18:38:05.730Z,68.40
2023-04-13T18:40:35.634Z,68.50
2023-04-13T18:43:03.120Z,68.60
2023-04-13T18:45:32.761Z,68.70
2023-04-13T18:48:02.289Z,68.80
2023-04-13T18:50:29.664Z,69.00
2023-04-13T18:52:59.137Z,69.00
2023-04-13T18:55:28.462Z,69.00
2023-04-13T18:57:56.512Z,69.10
2023-04-13T19:00:26.546Z,68.80
2023-04-13T19:02:54.132Z,68.90
2023-04-13T19:05:21.687Z,68.80
2023-04-13T19:08:01.830Z,68.80
2023-04-13T19:10:29.466Z,68.70
2023-04-13T19:12:56.804Z,68.60
2023-04-13T19:15:24.919Z,68.60
2023-04-13T19:17:55.464Z,68.60
2023-04-13T19:20:25.755Z,68.70
2023-04-13T19:22:53.035Z,68.80
2023-04-13T19:25:22.674Z,68.70
2023-04-13T19:27:52.420Z,68.80
2023-04-13T19:30:19.920Z,69.10
2023-04-13T19:32:49.273Z,69.10
2023-04-13T19:35:17.409Z,69.10
2023-04-13T19:37:44.749Z,69.20
2023-04-13T19:40:14.767Z,69.20
2023-04-13T19:42:46.119Z,69.30
2023-04-13T19:45:14.742Z,69.40
2023-04-13T19:47:44.486Z,69.50
2023-04-13T19:50:15.346Z,69.50
2023-04-13T19:52:43.141Z,69.60
2023-04-13T19:55:13.390Z,69.50
2023-04-13T19:57:42.865Z,69.60
2023-04-13T20:00:22.444Z,69.60
2023-04-13T20:02:58.679Z,69.60
2023-04-13T20:05:26.084Z,69.60
2023-04-13T20:07:53.452Z,69.70
2023-04-13T20:10:20.842Z,69.60
2023-04-13T20:12:48.608Z,69.50
2023-04-13T20:15:18.417Z,69.50
2023-04-13T20:17:47.840Z,69.60
2023-04-13T20:20:18.550Z,69.60
2023-04-13T20:22:45.856Z,69.60
2023-04-13T20:25:13.206Z,69.60
2023-04-13T20:27:42.597Z,69.50
2023-04-13T20:30:11.013Z,69.60
2023-04-13T20:32:39.125Z,69.50
2023-04-13T20:35:07.019Z,69.50
2023-04-13T20:37:34.374Z,69.50
2023-04-13T20:40:02.806Z,69.40
2023-04-13T20:42:33.651Z,69.50
2023-04-13T20:45:01.760Z,69.50
2023-04-13T20:47:31.562Z,69.60
2023-04-13T20:50:01.199Z,69.50
2023-04-13T20:52:31.801Z,69.60
2023-04-13T20:55:01.375Z,69.50
2023-04-13T20:57:31.827Z,69.60
2023-04-13T20:59:59.085Z,69.60
2023-04-13T21:02:26.669Z,69.50
2023-04-13T21:04:54.150Z,69.50
2023-04-13T21:07:26.191Z,69.70
2023-04-13T21:09:53.436Z,69.60
2023-04-13T21:12:21.000Z,69.50
2023-04-13T21:14:50.790Z,69.50
2023-04-13T21:17:18.193Z,69.60
2023-04-13T21:19:45.785Z,69.50
2023-04-13T21:22:15.885Z,69.40
2023-04-13T21:24:43.140Z,69.40
2023-04-13T21:27:13.459Z,69.30
2023-04-13T21:29:40.927Z,69.20
2023-04-13T21:32:10.792Z,69.90
2023-04-13T21:34:38.167Z,69.30
2023-04-13T21:37:05.750Z,69.20
2023-04-13T21:39:36.401Z,69.30
2023-04-13T21:42:05.034Z,69.30
2023-04-13T21:44:32.336Z,69.30
2023-04-13T21:46:59.827Z,69.40
2023-04-13T21:49:29.387Z,69.50
2023-04-13T21:51:56.675Z,69.60
2023-04-13T21:54:26.252Z,69.70
2023-04-13T21:56:53.481Z,69.80
2023-04-13T21:59:21.207Z,69.80
2023-04-13T22:01:50.998Z,69.90
2023-04-13T22:04:21.048Z,70.00
2023-04-13T22:06:48.445Z,69.90
2023-04-13T22:09:16.223Z,69.80
2023-04-13T22:11:43.658Z,69.80
2023-04-13T22:14:13.177Z,69.80
2023-04-13T22:16:40.988Z,69.80
2023-04-13T22:19:08.361Z,69.70
2023-04-13T22:21:38.685Z,69.70
2023-04-13T22:24:06.251Z,69.70
2023-04-13T22:26:33.521Z,69.80
2023-04-13T22:29:01.024Z,70.00
2023-04-13T22:31:28.661Z,70.10
2023-04-13T22:33:58.220Z,70.20
2023-04-13T22:36:25.509Z,70.20
2023-04-13T22:38:55.420Z,70.40
2023-04-13T22:41:25.375Z,70.60
2023-04-13T22:43:55.459Z,70.80
2023-04-13T22:46:24.024Z,71.10
2023-04-13T22:48:53.973Z,71.00
2023-04-13T22:51:21.249Z,71.00
2023-04-13T22:53:51.769Z,71.00
2023-04-13T22:56:23.848Z,71.00
2023-04-13T22:58:53.319Z,71.00
2023-04-13T23:01:20.695Z,71.10
2023-04-13T23:03:50.703Z,71.00
2023-04-13T23:06:20.700Z,71.20
2023-04-13T23:08:47.950Z,71.40
2023-04-13T23:11:15.181Z,71.50
2023-04-13T23:13:46.772Z,71.80
2023-04-13T23:16:17.019Z,71.90
2023-04-13T23:18:44.285Z,72.10
2023-04-13T23:21:14.685Z,72.30
2023-04-13T23:23:44.441Z,72.60
2023-04-13T23:26:16.418Z,72.90
2023-04-13T23:28:43.914Z,73.20
2023-04-13T23:31:11.231Z,73.40
2023-04-13T23:33:38.562Z,73.50
2023-04-13T23:36:08.393Z,73.50
2023-04-13T23:38:35.891Z,73.30
2023-04-13T23:41:05.473Z,73.20
2023-04-13T23:43:32.795Z,73.20
2023-04-13T23:46:05.177Z,73.10
2023-04-13T23:48:34.701Z,73.00
2023-04-13T23:51:04.153Z,73.00
2023-04-13T23:53:33.660Z,73.00
2023-04-13T23:56:03.117Z,72.90
2023-04-13T23:58:32.876Z,72.90
